createdAt,value
2023-04-15T00:00:35.507Z,100.00
2023-04-15T00:03:29.685Z,100.00
2023-04-15T00:06:35.892Z,100.00
2023-04-15T00:09:41.908Z,100.00
2023-04-15T00:12:48.441Z,100.00
2023-04-15T00:19:53.037Z,100.00
2023-04-15T00:22:59.172Z,100.00
2023-04-15T00:26:05.870Z,100.00
2023-04-15T00:29:12.938Z,100.00
2023-04-15T00:32:19.085Z,100.00
2023-04-15T00:35:24.664Z,100.00
2023-04-15T00:38:31.159Z,100.00
2023-04-15T00:41:36.848Z,100.00
2023-04-15T00:44:43.890Z,100.00
2023-04-15T00:47:49.817Z,100.00
2023-04-15T00:50:56.510Z,100.00
2023-04-15T00:54:02.599Z,100.00
2023-04-15T00:57:10.042Z,100.00
2023-04-15T01:00:18.392Z,100.00
2023-04-15T01:03:24.358Z,100.00
2023-04-15T01:06:31.196Z,100.00
2023-04-15T01:09:36.682Z,100.00
2023-04-15T01:12:44.926Z,100.00
2023-04-15T01:15:51.856Z,100.00
2023-04-15T01:18:59.462Z,100.00
2023-04-15T01:22:06.338Z,100.00
2023-04-15T01:25:21.986Z,100.00
2023-04-15T01:28:28.483Z,100.00
2023-04-15T01:31:36.254Z,99.94
2023-04-15T01:34:35.774Z,100.00
2023-04-15T01:37:41.883Z,99.85
2023-04-15T01:40:48.993Z,100.00
2023-04-15T01:43:55.491Z,99.48
2023-04-15T01:47:02.194Z,99.99
2023-04-15T01:50:08.676Z,100.00
2023-04-15T01:53:09.025Z,100.00
2023-04-15T01:56:16.844Z,100.00
2023-04-15T01:59:23.593Z,100.00
2023-04-15T02:02:31.292Z,100.00
2023-04-15T02:05:37.181Z,100.00
2023-04-15T02:08:43.314Z,100.00
2023-04-15T02:11:50.082Z,100.00
2023-04-15T02:14:55.126Z,100.00
2023-04-15T02:18:02.780Z,100.00
2023-04-15T02:21:09.022Z,100.00
2023-04-15T02:24:15.732Z,100.00
2023-04-15T02:27:21.248Z,100.00
2023-04-15T02:30:28.734Z,100.00
2023-04-15T02:33:36.099Z,100.00
2023-04-15T02:36:41.173Z,100.00
2023-04-15T02:39:47.213Z,100.00
2023-04-15T02:42:56.513Z,100.00
2023-04-15T02:46:02.879Z,100.00
2023-04-15T02:49:06.219Z,100.00
2023-04-15T02:51:55.656Z,100.00
2023-04-15T02:54:47.843Z,100.00
2023-04-15T02:57:33.506Z,100.00
2023-04-15T03:00:27.555Z,100.00
2023-04-15T03:03:28.178Z,99.99
2023-04-15T03:06:33.999Z,100.00
2023-04-15T03:09:39.576Z,100.00
2023-04-15T03:12:44.186Z,99.61
2023-04-15T03:15:50.244Z,99.71
2023-04-15T03:18:57.354Z,100.00
2023-04-15T03:22:03.584Z,100.00
2023-04-15T03:25:08.873Z,100.00
2023-04-15T03:28:17.096Z,100.00
2023-04-15T03:31:23.801Z,100.00
2023-04-15T03:34:28.716Z,100.00
2023-04-15T03:37:34.560Z,100.00
2023-04-15T03:40:40.498Z,100.00
2023-04-15T03:43:45.706Z,99.65
2023-04-15T03:46:52.189Z,99.28
2023-04-15T03:49:58.726Z,99.54
2023-04-15T03:53:04.864Z,99.85
2023-04-15T03:56:10.509Z,99.71
2023-04-15T03:59:17.045Z,99.61
2023-04-15T04:02:22.899Z,100.00
2023-04-15T04:05:28.525Z,100.00
2023-04-15T04:08:35.424Z,99.97
2023-04-15T04:11:41.150Z,99.89
2023-04-15T04:14:47.063Z,99.51
2023-04-15T04:17:53.991Z,98.93
2023-04-15T04:20:59.450Z,98.71
2023-04-15T04:24:05.332Z,98.43
2023-04-15T04:27:10.697Z,98.37
2023-04-15T04:30:17.309Z,97.69
2023-04-15T04:33:25.026Z,98.12
2023-04-15T04:36:31.602Z,97.44
2023-04-15T04:39:37.845Z,97.00
2023-04-15T04:42:44.282Z,96.33
2023-04-15T04:45:50.904Z,96.44
2023-04-15T04:48:56.541Z,96.92
2023-04-15T04:52:02.376Z,96.47
2023-04-15T04:55:09.751Z,96.08
2023-04-15T04:58:15.522Z,95.49
2023-04-15T05:01:22.373Z,95.68
2023-04-15T05:04:28.847Z,95.81
2023-04-15T05:07:34.652Z,95.67
2023-04-15T05:10:33.919Z,95.64
2023-04-15T05:13:28.464Z,95.93
2023-04-15T05:16:34.734Z,95.76
2023-04-15T05:19:40.589Z,95.54
2023-04-15T05:22:47.781Z,95.54
2023-04-15T05:25:53.652Z,94.11
2023-04-15T05:29:00.295Z,91.72
2023-04-15T05:32:06.594Z,90.81
2023-04-15T05:35:11.931Z,90.93
2023-04-15T05:38:18.233Z,91.18
2023-04-15T05:41:23.950Z,90.64
2023-04-15T05:44:30.125Z,89.91
2023-04-15T05:47:35.336Z,87.97
2023-04-15T05:50:41.805Z,88.43
2023-04-15T05:53:48.532Z,87.05
2023-04-15T05:56:53.647Z,86.66
2023-04-15T05:59:59.405Z,87.33
2023-04-15T06:03:13.408Z,86.46
2023-04-15T06:06:21.134Z,86.97
2023-04-15T06:09:26.991Z,85.05
2023-04-15T06:12:32.961Z,84.49
2023-04-15T06:15:39.314Z,84.46
2023-04-15T06:18:44.917Z,84.87
2023-04-15T06:21:50.192Z,85.47
2023-04-15T06:24:57.770Z,85.74
2023-04-15T06:28:03.663Z,86.99
2023-04-15T06:31:10.352Z,85.03
2023-04-15T06:34:16.434Z,83.33
2023-04-15T06:37:23.231Z,84.33
2023-04-15T06:40:29.226Z,84.17
2023-04-15T06:43:36.085Z,82.68
2023-04-15T06:46:42.630Z,82.49
2023-04-15T06:49:48.180Z,83.42
2023-04-15T06:52:55.508Z,84.51
2023-04-15T06:56:02.111Z,83.65
2023-04-15T06:59:07.301Z,83.83
2023-04-15T07:02:13.021Z,83.87
2023-04-15T07:05:20.028Z,84.63
2023-04-15T07:08:27.424Z,83.64
2023-04-15T07:11:33.936Z,83.78
2023-04-15T07:14:39.967Z,84.11
2023-04-15T07:17:46.105Z,84.13
2023-04-15T07:20:52.821Z,84.29
2023-04-15T07:23:58.908Z,84.25
2023-04-15T07:27:08.216Z,84.65
2023-04-15T07:30:12.918Z,84.81
2023-04-15T07:33:18.050Z,85.04
2023-04-15T07:36:24.151Z,85.04
2023-04-15T07:39:29.333Z,84.67
2023-04-15T07:42:34.037Z,84.03
2023-04-15T07:45:40.854Z,84.29
2023-04-15T07:48:46.328Z,84.31
2023-04-15T07:51:52.389Z,85.60
2023-04-15T07:54:58.647Z,84.61
2023-04-15T07:58:04.149Z,84.73
2023-04-15T08:01:09.970Z,84.71
2023-04-15T08:04:16.242Z,85.11
2023-04-15T08:07:23.524Z,85.66
2023-04-15T08:10:29.215Z,84.96
2023-04-15T08:13:35.277Z,84.82
2023-04-15T08:16:41.810Z,85.11
2023-04-15T08:19:48.953Z,84.36
2023-04-15T08:22:56.768Z,84.60
2023-04-15T08:26:02.829Z,84.92
2023-04-15T08:29:09.221Z,84.55
2023-04-15T08:32:15.155Z,84.50
2023-04-15T08:35:22.835Z,84.70
2023-04-15T08:38:28.794Z,84.27
2023-04-15T08:41:41.102Z,84.13
2023-04-15T08:44:49.137Z,83.26
2023-04-15T08:47:54.917Z,83.46
2023-04-15T08:51:01.748Z,83.72
2023-04-15T08:54:09.141Z,84.30
2023-04-15T08:57:14.835Z,85.24
2023-04-15T09:00:22.307Z,84.32
2023-04-15T09:03:30.400Z,84.30
2023-04-15T09:06:37.267Z,84.64
2023-04-15T09:09:43.930Z,84.51
2023-04-15T09:12:51.810Z,84.60
2023-04-15T09:15:58.013Z,85.18
2023-04-15T09:19:03.954Z,84.93
2023-04-15T09:22:12.034Z,84.66
2023-04-15T09:25:17.578Z,84.03
2023-04-15T09:28:23.920Z,84.26
2023-04-15T09:31:30.034Z,83.62
2023-04-15T09:34:35.060Z,83.75
2023-04-15T09:37:53.306Z,83.75
2023-04-15T09:40:59.374Z,83.76
2023-04-15T09:44:04.979Z,84.51
2023-04-15T09:47:11.667Z,83.19
2023-04-15T09:50:16.679Z,82.10
2023-04-15T09:53:26.146Z,82.65
2023-04-15T09:56:31.924Z,83.44
2023-04-15T09:59:38.290Z,83.17
2023-04-15T10:02:44.895Z,83.63
2023-04-15T10:05:50.959Z,83.45
2023-04-15T10:08:58.641Z,83.51
2023-04-15T10:12:05.230Z,82.85
2023-04-15T10:15:16.106Z,84.34
2023-04-15T10:18:21.872Z,83.40
2023-04-15T10:21:26.658Z,83.75
2023-04-15T10:24:31.655Z,83.74
2023-04-15T10:27:37.154Z,82.78
2023-04-15T10:30:36.330Z,82.77
2023-04-15T10:33:41.568Z,81.27
2023-04-15T10:36:48.876Z,81.83
2023-04-15T10:39:58.814Z,80.60
2023-04-15T10:43:05.052Z,80.75
2023-04-15T10:46:10.543Z,81.22
2023-04-15T10:49:15.641Z,80.82
2023-04-15T10:52:21.713Z,80.14
2023-04-15T10:55:41.391Z,80.13
2023-04-15T10:58:58.913Z,79.96
2023-04-15T11:02:14.039Z,80.29
2023-04-15T11:05:20.847Z,79.21
2023-04-15T11:08:26.398Z,79.16
2023-04-15T11:11:33.208Z,80.80
2023-04-15T11:14:38.473Z,80.38
2023-04-15T11:17:46.645Z,81.65
2023-04-15T11:20:55.326Z,82.68
2023-04-15T11:24:02.227Z,79.99
2023-04-15T11:27:13.343Z,79.63
2023-04-15T11:30:41.170Z,79.70
2023-04-15T11:33:48.596Z,80.36
2023-04-15T11:36:55.356Z,81.33
2023-04-15T11:40:02.636Z,80.63
2023-04-15T11:43:28.208Z,80.39
2023-04-15T11:46:33.315Z,79.70
2023-04-15T11:49:45.924Z,79.21
2023-04-15T11:52:51.557Z,79.83
2023-04-15T11:56:03.023Z,79.00
2023-04-15T11:59:11.480Z,79.50
2023-04-15T12:02:22.369Z,78.93
2023-04-15T12:05:28.758Z,77.85
2023-04-15T12:08:34.286Z,78.31
2023-04-15T12:11:54.569Z,77.97
2023-04-15T12:15:00.836Z,77.62
2023-04-15T12:18:08.838Z,78.00
2023-04-15T12:21:25.874Z,78.16
2023-04-15T12:24:33.355Z,77.52
2023-04-15T12:27:43.506Z,77.41
2023-04-15T12:30:49.991Z,79.25
2023-04-15T12:33:57.094Z,78.89
2023-04-15T12:37:02.734Z,78.96
2023-04-15T12:40:03.004Z,78.42
2023-04-15T12:42:49.664Z,77.47
2023-04-15T12:45:42.379Z,78.93
2023-04-15T12:48:29.216Z,78.25
2023-04-15T12:51:23.631Z,78.25
2023-04-15T12:54:28.495Z,78.23
2023-04-15T12:57:33.726Z,79.01
2023-04-15T13:00:39.741Z,78.86
2023-04-15T13:03:45.697Z,78.76
2023-04-15T13:06:52.813Z,78.01
2023-04-15T13:09:59.307Z,77.91
2023-04-15T13:13:09.235Z,76.92
2023-04-15T13:16:17.125Z,77.97
2023-04-15T13:19:22.825Z,77.47
2023-04-15T13:22:28.507Z,78.49
2023-04-15T13:25:35.312Z,77.87
2023-04-15T13:28:40.617Z,78.39
2023-04-15T13:31:45.519Z,78.40
2023-04-15T13:34:50.948Z,77.35
2023-04-15T13:37:56.390Z,78.04
2023-04-15T13:41:03.222Z,77.81
2023-04-15T13:44:08.546Z,77.67
2023-04-15T13:47:07.528Z,76.92
2023-04-15T13:49:55.485Z,77.24
2023-04-15T13:52:49.072Z,77.33
2023-04-15T13:55:55.552Z,77.63
2023-04-15T13:59:02.895Z,76.26
2023-04-15T14:02:08.446Z,75.54
2023-04-15T14:05:13.997Z,75.89
2023-04-15T14:08:20.543Z,76.12
2023-04-15T14:11:25.646Z,75.56
2023-04-15T14:14:31.121Z,76.32
2023-04-15T14:17:37.249Z,76.45
2023-04-15T14:20:43.516Z,75.79
2023-04-15T14:23:49.617Z,76.57
2023-04-15T14:26:55.582Z,76.63
2023-04-15T14:30:01.546Z,76.46
2023-04-15T14:33:08.722Z,76.74
2023-04-15T14:36:14.509Z,77.49
2023-04-15T14:39:19.979Z,77.06
2023-04-15T14:42:26.603Z,76.62
2023-04-15T14:45:33.050Z,76.77
2023-04-15T14:48:38.766Z,77.59
2023-04-15T14:51:44.573Z,77.32
2023-04-15T14:54:50.186Z,76.69
2023-04-15T14:57:56.330Z,77.04
2023-04-15T15:01:03.099Z,76.02
2023-04-15T15:04:08.914Z,76.41
2023-04-15T15:07:15.553Z,76.81
2023-04-15T15:10:34.652Z,77.21
2023-04-15T15:13:23.565Z,77.47
2023-04-15T15:16:28.249Z,77.16
2023-04-15T15:19:34.128Z,77.50
2023-04-15T15:22:39.854Z,77.88
2023-04-15T15:25:45.459Z,77.58
2023-04-15T15:28:53.054Z,78.21
2023-04-15T15:31:58.639Z,78.18
2023-04-15T15:35:05.132Z,78.05
2023-04-15T15:38:11.202Z,78.57
2023-04-15T15:41:17.684Z,79.59
2023-04-15T15:44:24.285Z,79.72
2023-04-15T15:47:30.874Z,79.69
2023-04-15T15:50:37.317Z,81.32
2023-04-15T15:53:43.271Z,81.49
2023-04-15T15:56:49.678Z,80.88
2023-04-15T16:00:10.191Z,81.10
2023-04-15T16:03:06.597Z,81.90
2023-04-15T16:06:13.043Z,82.60
2023-04-15T16:09:20.027Z,82.74
2023-04-15T16:12:25.193Z,82.96
2023-04-15T16:15:30.616Z,83.14
2023-04-15T16:18:36.256Z,82.66
2023-04-15T16:21:42.942Z,83.24
2023-04-15T16:24:48.717Z,83.92
2023-04-15T16:28:03.443Z,84.13
2023-04-15T16:31:01.738Z,84.18
2023-04-15T16:34:22.735Z,84.32
2023-04-15T16:37:29.126Z,84.48
2023-04-15T16:40:34.439Z,84.46
2023-04-15T16:43:41.034Z,84.47
2023-04-15T16:46:46.268Z,84.73
2023-04-15T16:49:52.331Z,84.45
2023-04-15T16:52:52.284Z,84.58
2023-04-15T16:55:57.943Z,85.02
2023-04-15T16:59:03.107Z,85.57
2023-04-15T17:02:11.562Z,86.05
2023-04-15T17:05:18.416Z,86.56
2023-04-15T17:08:24.970Z,86.67
2023-04-15T17:11:30.185Z,86.82
2023-04-15T17:14:35.923Z,86.80
2023-04-15T17:17:41.852Z,86.60
2023-04-15T17:20:47.331Z,87.02
2023-04-15T17:23:52.388Z,87.02
2023-04-15T17:26:58.750Z,86.91
2023-04-15T17:30:04.142Z,86.59
2023-04-15T17:33:50.461Z,86.75
2023-04-15T17:36:11.496Z,87.01
2023-04-15T17:39:18.664Z,86.64
2023-04-15T17:42:26.544Z,86.32
2023-04-15T17:45:32.809Z,86.31
2023-04-15T17:48:38.598Z,87.14
2023-04-15T17:51:43.588Z,87.94
2023-04-15T17:54:48.928Z,88.20
2023-04-15T17:57:56.548Z,88.13
2023-04-15T18:01:02.002Z,87.67
2023-04-15T18:04:08.812Z,88.40
2023-04-15T18:07:14.227Z,89.00
2023-04-15T18:10:20.366Z,89.27
2023-04-15T18:13:26.634Z,89.01
2023-04-15T18:16:32.067Z,88.90
2023-04-15T18:19:33.231Z,89.29
2023-04-15T18:22:26.248Z,89.30
2023-04-15T18:25:31.960Z,89.07
2023-04-15T18:28:38.584Z,89.25
2023-04-15T18:31:45.868Z,89.32
2023-04-15T18:34:52.093Z,89.15
2023-04-15T18:37:51.362Z,89.48
2023-04-15T18:40:57.361Z,89.31
2023-04-15T18:44:02.741Z,89.55
2023-04-15T18:47:08.057Z,89.47
2023-04-15T18:50:13.225Z,89.93
2023-04-15T18:53:19.959Z,90.37
2023-04-15T18:56:25.956Z,90.56
2023-04-15T18:59:32.197Z,90.67
2023-04-15T19:02:39.041Z,90.79
2023-04-15T19:05:45.026Z,90.49
2023-04-15T19:08:50.608Z,90.41
2023-04-15T19:11:57.332Z,89.85
2023-04-15T19:15:02.877Z,89.64
2023-04-15T19:18:08.685Z,89.90
2023-04-15T19:21:14.196Z,90.61
2023-04-15T19:24:20.897Z,90.62
2023-04-15T19:27:27.044Z,90.20
2023-04-15T19:30:33.147Z,90.65
2023-04-15T19:33:38.748Z,90.21
2023-04-15T19:36:44.355Z,90.33
2023-04-15T19:39:49.973Z,91.10
2023-04-15T19:42:55.368Z,91.45
2023-04-15T19:46:02.009Z,91.59
2023-04-15T19:49:08.854Z,91.73
2023-04-15T19:52:13.714Z,91.48
2023-04-15T19:55:19.233Z,92.04
2023-04-15T19:58:24.605Z,91.95
2023-04-15T20:01:30.222Z,92.54
2023-04-15T20:04:35.984Z,92.80
2023-04-15T20:07:41.622Z,92.96
2023-04-15T20:10:47.881Z,93.19
2023-04-15T20:13:53.839Z,93.36
2023-04-15T20:16:58.987Z,92.56
2023-04-15T20:20:05.234Z,92.72
2023-04-15T20:23:10.287Z,92.12
2023-04-15T20:26:16.039Z,92.27
2023-04-15T20:29:22.489Z,92.65
2023-04-15T20:32:28.477Z,92.84
2023-04-15T20:35:37.417Z,93.17
2023-04-15T20:38:43.864Z,93.12
2023-04-15T20:41:49.654Z,92.56
2023-04-15T20:44:56.204Z,92.60
2023-04-15T20:48:02.945Z,92.51
2023-04-15T20:51:09.335Z,92.10
2023-04-15T20:54:08.039Z,92.22
2023-04-15T20:57:13.499Z,92.51
2023-04-15T21:00:18.498Z,91.63
2023-04-15T21:03:24.339Z,91.55
2023-04-15T21:06:31.392Z,91.25
2023-04-15T21:09:37.105Z,90.83
2023-04-15T21:12:44.444Z,90.87
2023-04-15T21:15:49.033Z,90.88
2023-04-15T21:18:54.807Z,90.83
2023-04-15T21:22:00.521Z,90.78
2023-04-15T21:25:06.945Z,90.32
2023-04-15T21:28:13.542Z,90.84
2023-04-15T21:31:19.359Z,90.70
2023-04-15T21:34:24.761Z,90.64
2023-04-15T21:37:30.455Z,90.76
2023-04-15T21:40:36.576Z,91.09
2023-04-15T21:43:42.282Z,91.20
2023-04-15T21:46:47.719Z,91.27
2023-04-15T21:49:54.199Z,91.72
2023-04-15T21:53:00.064Z,91.45
2023-04-15T21:56:05.219Z,91.06
2023-04-15T21:59:11.421Z,92.08
2023-04-15T22:02:16.767Z,92.60
2023-04-15T22:05:23.900Z,92.79
2023-04-15T22:08:33.648Z,92.62
2023-04-15T22:11:37.376Z,92.57
2023-04-15T22:14:44.128Z,92.09
2023-04-15T22:17:50.273Z,92.74
2023-04-15T22:20:49.614Z,92.97
2023-04-15T22:24:31.769Z,93.00
2023-04-15T22:27:02.722Z,92.71
2023-04-15T22:30:08.969Z,93.39
2023-04-15T22:33:14.664Z,93.40
2023-04-15T22:36:21.828Z,93.21
2023-04-15T22:39:28.307Z,93.19
2023-04-15T22:42:34.591Z,94.24
2023-04-15T22:45:40.138Z,94.19
2023-04-15T22:48:46.590Z,94.32
2023-04-15T22:51:46.217Z,94.55
2023-04-15T22:54:52.930Z,94.55
2023-04-15T22:57:59.784Z,94.84
2023-04-15T23:01:05.838Z,94.99
2023-04-15T23:04:24.901Z,95.17
2023-04-15T23:07:17.864Z,95.14
2023-04-15T23:10:24.736Z,94.68
2023-04-15T23:13:30.471Z,94.83
2023-04-15T23:16:36.545Z,95.25
2023-04-15T23:19:42.856Z,95.31
2023-04-15T23:22:49.427Z,95.76
2023-04-15T23:25:55.246Z,95.68
2023-04-15T23:29:01.759Z,94.56
2023-04-15T23:32:07.082Z,94.59
2023-04-15T23:35:13.493Z,94.50
2023-04-15T23:38:18.658Z,94.52
2023-04-15T23:41:25.298Z,94.62
2023-04-15T23:44:31.146Z,94.83
2023-04-15T23:47:37.616Z,94.64
2023-04-15T23:50:43.280Z,94.45
2023-04-15T23:53:49.394Z,94.51
2023-04-15T23:56:56.116Z,95.20
